Time;durP1;ratioP1;P1;durP2;ratioP2;P2;SDS_P1;SDS_P2;PMS_P1;PMS_P2;Temp;Humidity;BMP_temperature;BMP_pressure;BME280_temperature;BME280_humidity;BME280_pressure;Samples;Min_cycle;Max_cycle;Signal;HPM_P1;HPM_P2
2020/12/21 00:00:28;;;;;;;17.83;14.20;;;7.20;93.30;;;;;;4986104;28;20533;-58
2020/12/21 00:02:53;;;;;;;20.60;15.05;;;7.20;93.30;;;;;;4985637;28;20034;-56
2020/12/21 00:05:19;;;;;;;19.38;15.55;;;7.20;93.20;;;;;;4987119;28;20237;-59
2020/12/21 00:07:44;;;;;;;18.58;14.38;;;7.20;93.30;;;;;;4988985;28;20088;-59
2020/12/21 00:10:10;;;;;;;19.73;14.73;;;7.20;93.30;;;;;;4988350;28;20089;-59
2020/12/21 00:12:36;;;;;;;21.27;15.10;;;7.20;93.30;;;;;;4986934;28;20060;-59
2020/12/21 00:15:01;;;;;;;17.70;14.30;;;7.20;93.30;;;;;;4988763;28;20041;-58
2020/12/21 00:17:27;;;;;;;18.48;14.38;;;7.20;93.20;;;;;;4988968;28;20023;-57
2020/12/21 00:19:52;;;;;;;19.83;15.48;;;7.20;93.30;;;;;;4988433;28;20030;-56
2020/12/21 00:22:18;;;;;;;19.02;14.38;;;7.20;93.20;;;;;;4985212;28;20034;-57
2020/12/21 00:24:44;;;;;;;20.80;15.02;;;7.20;93.20;;;;;;4985122;28;20061;-58
2020/12/21 00:27:10;;;;;;;18.88;14.25;;;7.20;93.20;;;;;;4986104;28;20090;-56
2020/12/21 00:29:35;;;;;;;21.25;14.25;;;7.20;93.20;;;;;;4988477;28;20034;-58
2020/12/21 00:32:01;;;;;;;17.48;14.20;;;7.20;93.20;;;;;;4992270;28;20026;-57
2020/12/21 00:34:26;;;;;;;18.90;14.38;;;7.20;93.20;;;;;;4991300;28;20105;-57
2020/12/21 00:36:53;;;;;;;19.52;14.90;;;7.20;93.30;;;;;;4958435;28;20081;-59
2020/12/21 00:39:18;;;;;;;19.50;14.10;;;7.20;93.30;;;;;;4990498;28;20053;-57
2020/12/21 00:41:44;;;;;;;19.00;14.48;;;7.20;93.30;;;;;;4991201;28;20057;-57
2020/12/21 00:44:10;;;;;;;19.33;13.63;;;7.20;93.30;;;;;;4991506;28;20050;-58
2020/12/21 00:46:35;;;;;;;20.33;14.88;;;7.20;93.30;;;;;;4984150;28;20047;-58
2020/12/21 00:49:01;;;;;;;20.60;15.20;;;7.20;93.20;;;;;;4987469;28;20045;-56
2020/12/21 00:51:26;;;;;;;18.23;14.32;;;7.20;93.20;;;;;;4989941;28;20101;-57
2020/12/21 00:53:52;;;;;;;16.00;13.43;;;7.20;93.20;;;;;;4990650;28;20121;-58
2020/12/21 00:56:18;;;;;;;21.13;14.90;;;7.20;93.20;;;;;;4992959;28;20234;-57
2020/12/21 00:58:45;;;;;;;18.17;14.07;;;7.20;93.30;;;;;;4988821;28;20026;-57
2020/12/21 01:01:12;;;;;;;18.52;13.18;;;7.20;93.20;;;;;;4973211;28;20022;-57
2020/12/21 01:03:38;;;;;;;18.27;13.73;;;7.20;93.50;;;;;;4988200;28;20097;-56
2020/12/21 01:06:04;;;;;;;17.35;13.55;;;7.20;93.20;;;;;;4973595;28;20434;-57
2020/12/21 01:08:29;;;;;;;19.52;14.20;;;7.20;93.20;;;;;;4970696;28;20034;-57
2020/12/21 01:10:55;;;;;;;16.80;14.18;;;7.30;93.20;;;;;;4993222;28;20112;-57
2020/12/21 01:13:20;;;;;;;17.48;13.90;;;7.20;93.20;;;;;;4992263;28;20028;-59
2020/12/21 01:15:46;;;;;;;18.00;13.50;;;7.20;93.20;;;;;;4988742;28;20039;-56
2020/12/21 01:18:11;;;;;;;19.23;14.48;;;7.20;93.20;;;;;;4986839;28;20444;-57
2020/12/21 01:20:37;;;;;;;17.13;13.68;;;7.20;93.20;;;;;;4989718;28;20030;-56
2020/12/21 01:23:03;;;;;;;19.67;13.57;;;7.30;93.30;;;;;;4985620;28;20038;-58
2020/12/21 01:25:28;;;;;;;18.98;14.15;;;7.20;93.20;;;;;;4991753;28;20035;-56
2020/12/21 01:27:54;;;;;;;19.25;14.07;;;7.20;93.20;;;;;;4990252;28;20104;-61
2020/12/21 01:30:19;;;;;;;20.45;13.65;;;7.20;93.30;;;;;;4990385;28;20397;-59
2020/12/21 01:32:45;;;;;;;17.10;13.35;;;7.20;93.30;;;;;;4991844;28;20185;-56
2020/12/21 01:35:10;;;;;;;17.40;13.13;;;7.20;93.30;;;;;;4992781;28;20038;-58
2020/12/21 01:37:36;;;;;;;18.40;13.85;;;7.20;93.30;;;;;;4989436;28;20026;-59
2020/12/21 01:40:03;;;;;;;15.57;13.73;;;7.20;93.30;;;;;;4988302;28;20236;-59
2020/12/21 01:42:29;;;;;;;15.70;12.95;;;7.20;93.30;;;;;;4981797;28;20098;-58
2020/12/21 01:44:54;;;;;;;18.92;13.90;;;7.20;93.30;;;;;;4971216;28;20054;-56
2020/12/21 01:47:20;;;;;;;15.55;12.75;;;7.20;93.30;;;;;;4985257;28;20038;-59
2020/12/21 01:49:45;;;;;;;15.75;13.10;;;7.20;93.30;;;;;;4948995;28;20079;-57
2020/12/21 01:52:11;;;;;;;16.02;12.98;;;7.20;93.30;;;;;;5006600;28;20437;-59
2020/12/21 01:54:36;;;;;;;17.17;13.00;;;7.30;93.30;;;;;;4987174;28;20424;-58
2020/12/21 01:57:02;;;;;;;16.33;13.60;;;7.20;93.20;;;;;;4983676;28;20386;-57
2020/12/21 01:59:28;;;;;;;15.90;12.63;;;7.20;93.20;;;;;;4983896;28;20513;-57
2020/12/21 02:01:53;;;;;;;17.17;13.27;;;7.20;93.30;;;;;;4984515;28;20034;-57
2020/12/21 02:04:19;;;;;;;17.15;13.68;;;7.20;93.30;;;;;;4958121;28;20113;-57
2020/12/21 02:06:45;;;;;;;17.17;13.70;;;7.20;93.30;;;;;;4986157;28;20035;-59
2020/12/21 02:09:11;;;;;;;17.17;13.07;;;7.20;93.30;;;;;;4989298;28;20042;-57
2020/12/21 02:11:40;;;;;;;15.05;12.40;;;7.20;93.30;;;;;;4986988;28;20085;-57
2020/12/21 02:14:06;;;;;;;17.80;12.95;;;7.20;93.30;;;;;;4988499;28;20034;-58
2020/12/21 02:16:31;;;;;;;16.27;12.23;;;7.20;93.20;;;;;;4983734;28;20367;-56
2020/12/21 02:18:57;;;;;;;15.80;12.55;;;7.30;93.30;;;;;;4986185;28;20186;-58
2020/12/21 02:21:22;;;;;;;14.68;12.32;;;7.30;93.30;;;;;;4969550;28;20397;-57
2020/12/21 02:23:48;;;;;;;14.73;11.90;;;7.30;93.30;;;;;;4984081;28;20076;-56
2020/12/21 02:26:13;;;;;;;14.30;12.05;;;7.20;93.30;;;;;;4984828;28;20457;-58
2020/12/21 02:28:39;;;;;;;16.05;12.73;;;7.30;93.60;;;;;;4989718;28;20030;-58
2020/12/21 02:31:04;;;;;;;16.90;12.85;;;7.30;93.30;;;;;;4983697;28;20046;-58
2020/12/21 02:33:30;;;;;;;14.55;11.93;;;7.20;93.30;;;;;;4984888;28;20042;-56
2020/12/21 02:35:56;;;;;;;15.60;12.90;;;7.30;93.30;;;;;;4967164;28;20054;-57
2020/12/21 02:38:21;;;;;;;17.45;12.60;;;7.20;93.30;;;;;;4988690;28;20390;-58
2020/12/21 02:40:48;;;;;;;17.50;12.30;;;7.30;93.30;;;;;;5000062;28;20061;-57
2020/12/21 02:43:14;;;;;;;15.68;12.50;;;7.20;93.30;;;;;;4967929;28;20490;-57
2020/12/21 02:45:40;;;;;;;15.20;12.18;;;7.20;93.30;;;;;;4980249;28;20069;-58
2020/12/21 02:48:05;;;;;;;14.80;12.38;;;7.20;93.40;;;;;;4996153;28;20022;-59
2020/12/21 02:50:31;;;;;;;14.73;11.43;;;7.20;93.30;;;;;;4980648;28;20027;-57
2020/12/21 02:52:57;;;;;;;15.88;12.45;;;7.20;93.30;;;;;;4989555;28;20038;-58
2020/12/21 02:55:22;;;;;;;14.27;11.88;;;7.20;93.30;;;;;;4977097;28;20038;-58
2020/12/21 02:57:48;;;;;;;13.48;11.50;;;7.30;93.30;;;;;;4990122;28;20058;-57
2020/12/21 03:00:14;;;;;;;16.10;12.52;;;7.30;93.30;;;;;;4988263;28;20051;-57
2020/12/21 03:02:39;;;;;;;14.85;12.05;;;7.30;93.30;;;;;;4983764;28;20117;-58
2020/12/21 03:05:05;;;;;;;14.38;11.75;;;7.20;93.30;;;;;;4982506;28;20041;-56
2020/12/21 03:07:30;;;;;;;14.63;11.52;;;7.30;93.30;;;;;;4990383;28;20363;-59
2020/12/21 03:09:56;;;;;;;14.80;12.20;;;7.20;93.30;;;;;;4981834;28;20062;-57
2020/12/21 03:12:21;;;;;;;14.75;12.35;;;7.20;93.30;;;;;;4983906;28;20058;-59
2020/12/21 03:14:47;;;;;;;16.08;12.25;;;7.30;93.30;;;;;;4983458;28;20040;-58
2020/12/21 03:17:12;;;;;;;16.08;12.63;;;7.20;93.30;;;;;;4983324;28;20066;-58
2020/12/21 03:19:38;;;;;;;18.08;11.57;;;7.40;93.30;;;;;;4986922;28;20113;-57
2020/12/21 03:22:03;;;;;;;15.30;11.50;;;7.20;93.30;;;;;;4989129;28;20474;-59
2020/12/21 03:24:29;;;;;;;15.85;12.15;;;7.20;93.30;;;;;;4981576;28;20034;-57
2020/12/21 03:26:54;;;;;;;14.73;11.63;;;7.30;93.40;;;;;;4978373;28;20038;-57
2020/12/21 03:29:20;;;;;;;14.98;11.55;;;7.20;93.30;;;;;;4986574;28;20030;-57
2020/12/21 03:31:45;;;;;;;13.82;11.75;;;7.20;93.30;;;;;;4988688;28;20033;-59
2020/12/21 03:34:14;;;;;;;15.00;11.75;;;7.20;93.30;;;;;;4978949;28;20042;-58
2020/12/21 03:36:46;;;;;;;15.43;12.05;;;7.20;93.30;;;;;;4982080;28;20097;-58
2020/12/21 03:39:11;;;;;;;14.23;11.07;;;7.20;93.40;;;;;;4981966;28;20031;-59
2020/12/21 03:41:37;;;;;;;15.25;11.43;;;7.20;93.40;;;;;;4985182;28;20037;-58
2020/12/21 03:44:02;;;;;;;13.25;10.60;;;7.20;93.40;;;;;;4989163;28;20129;-57
2020/12/21 03:46:28;;;;;;;15.98;12.10;;;7.20;93.50;;;;;;4984497;28;20066;-57
2020/12/21 03:48:53;;;;;;;14.90;12.20;;;7.20;93.50;;;;;;4985260;28;20141;-57
2020/12/21 03:51:19;;;;;;;12.80;10.80;;;7.20;93.50;;;;;;4986644;28;20093;-59
2020/12/21 03:53:44;;;;;;;15.00;11.00;;;7.20;93.50;;;;;;4977782;28;20267;-59
2020/12/21 03:56:10;;;;;;;12.77;10.68;;;7.20;93.50;;;;;;4988562;28;20036;-57
2020/12/21 03:58:35;;;;;;;15.70;11.57;;;7.20;93.40;;;;;;4986172;28;20109;-59
2020/12/21 04:01:01;;;;;;;13.85;11.65;;;7.20;93.50;;;;;;4986045;28;20658;-59
2020/12/21 04:03:30;;;;;;;12.90;11.00;;;7.10;93.50;;;;;;4977409;28;20070;-56
2020/12/21 04:05:55;;;;;;;14.85;11.52;;;7.20;93.50;;;;;;4975300;28;20486;-58
2020/12/21 04:08:21;;;;;;;15.23;11.27;;;7.10;93.50;;;;;;4983132;28;20031;-58
2020/12/21 04:10:47;;;;;;;13.13;10.77;;;7.20;93.50;;;;;;4984307;28;20255;-57
2020/12/21 04:13:13;;;;;;;13.38;11.18;;;7.20;93.50;;;;;;4989210;28;20025;-58
2020/12/21 04:15:39;;;;;;;14.75;11.90;;;7.10;93.40;;;;;;4978006;28;20037;-56
2020/12/21 04:18:04;;;;;;;12.98;10.02;;;7.10;93.50;;;;;;5000986;28;20026;-57
2020/12/21 04:20:30;;;;;;;15.00;11.68;;;7.10;93.50;;;;;;4984222;28;20026;-59
2020/12/21 04:22:56;;;;;;;13.52;10.52;;;7.10;93.40;;;;;;4981906;28;20038;-59
2020/12/21 04:25:21;;;;;;;13.52;10.82;;;7.10;93.40;;;;;;4987523;28;20061;-57
2020/12/21 04:27:47;;;;;;;12.10;9.93;;;7.20;93.50;;;;;;4984990;28;20526;-57
2020/12/21 04:30:12;;;;;;;14.07;11.02;;;7.10;93.50;;;;;;4983380;28;20038;-57
2020/12/21 04:32:38;;;;;;;12.95;10.82;;;7.10;93.50;;;;;;4981968;28;20098;-56
2020/12/21 04:35:03;;;;;;;14.00;10.75;;;7.10;93.50;;;;;;4986755;28;20273;-57
2020/12/21 04:37:29;;;;;;;14.82;10.73;;;7.10;93.70;;;;;;4988260;28;20386;-57
2020/12/21 04:39:54;;;;;;;13.48;10.63;;;7.10;93.50;;;;;;4985312;28;20027;-59
2020/12/21 04:42:24;;;;;;;13.80;10.45;;;7.10;93.50;;;;;;4981432;28;20441;-58
2020/12/21 04:44:50;;;;;;;15.60;11.50;;;7.10;93.50;;;;;;4983418;28;20054;-58
2020/12/21 04:47:15;;;;;;;13.63;10.20;;;7.10;93.50;;;;;;4976209;28;20035;-57
2020/12/21 04:49:41;;;;;;;13.50;10.50;;;7.10;93.50;;;;;;4970827;28;20378;-56
2020/12/21 04:52:06;;;;;;;12.13;10.50;;;7.10;93.50;;;;;;4971565;28;20050;-58
2020/12/21 04:54:32;;;;;;;13.15;10.85;;;7.10;93.50;;;;;;4968240;28;20556;-57
2020/12/21 04:56:58;;;;;;;12.20;9.98;;;7.10;93.50;;;;;;4987249;28;20092;-56
2020/12/21 04:59:23;;;;;;;11.77;10.18;;;7.10;93.50;;;;;;4981256;28;20030;-58
2020/12/21 05:01:49;;;;;;;12.82;11.18;;;7.10;93.50;;;;;;4988515;28;20030;-58
2020/12/21 05:04:14;;;;;;;12.48;10.27;;;7.10;93.50;;;;;;4987749;28;20027;-58
2020/12/21 05:06:51;;;;;;;13.38;10.57;;;7.10;93.40;;;;;;4980832;28;20409;-59
2020/12/21 05:09:20;;;;;;;12.13;10.10;;;7.00;93.40;;;;;;4978359;28;20096;-57
2020/12/21 05:11:52;;;;;;;12.90;10.40;;;7.10;93.50;;;;;;4985773;28;20271;-56
2020/12/21 05:14:18;;;;;;;13.95;11.10;;;7.10;93.50;;;;;;4989037;28;20034;-57
2020/12/21 05:16:43;;;;;;;11.68;10.20;;;7.00;93.50;;;;;;4984118;28;20035;-58
2020/12/21 05:19:10;;;;;;;13.07;10.38;;;7.00;93.50;;;;;;4990107;28;20022;-57
2020/12/21 05:21:35;;;;;;;14.82;10.70;;;7.00;93.50;;;;;;4978940;28;20297;-58
2020/12/21 05:24:02;;;;;;;11.80;9.95;;;7.00;93.50;;;;;;4977513;28;20030;-57
2020/12/21 05:26:29;;;;;;;11.82;10.43;;;7.00;93.50;;;;;;4989807;28;20039;-57
2020/12/21 05:28:54;;;;;;;13.15;10.27;;;7.00;93.50;;;;;;4988797;28;20620;-56
2020/12/21 05:31:20;;;;;;;12.63;9.60;;;7.00;93.50;;;;;;4990476;28;20113;-57
2020/12/21 05:33:45;;;;;;;12.88;10.23;;;7.00;93.50;;;;;;4990913;28;20050;-57
2020/12/21 05:36:19;;;;;;;12.75;10.63;;;7.00;93.50;;;;;;4985380;28;20402;-57
2020/12/21 05:38:53;;;;;;;11.52;10.18;;;7.00;93.40;;;;;;4987044;28;20125;-59
2020/12/21 05:41:20;;;;;;;12.33;10.17;;;7.00;93.50;;;;;;4970635;28;20046;-57
2020/12/21 05:43:46;;;;;;;12.88;10.63;;;7.00;93.50;;;;;;4991501;28;20417;-58
2020/12/21 05:46:13;;;;;;;11.95;10.50;;;7.00;93.40;;;;;;4989613;28;20149;-58
2020/12/21 05:48:42;;;;;;;13.35;10.25;;;7.00;93.50;;;;;;4958285;28;20073;-58
2020/12/21 05:51:08;;;;;;;14.48;9.80;;;7.00;93.60;;;;;;4988195;28;20110;-57
2020/12/21 05:53:40;;;;;;;13.35;10.32;;;7.00;93.50;;;;;;4989494;28;20026;-58
2020/12/21 05:56:06;;;;;;;11.23;9.43;;;7.00;93.50;;;;;;4990464;28;20034;-56
2020/12/21 05:58:33;;;;;;;11.65;10.07;;;7.00;93.50;;;;;;4991014;28;20026;-56
2020/12/21 06:01:09;;;;;;;17.77;10.30;;;7.00;93.40;;;;;;4989127;28;20108;-58
2020/12/21 06:03:38;;;;;;;18.63;10.40;;;7.00;93.40;;;;;;4970344;28;20030;-57
2020/12/21 06:06:23;;;;;;;16.50;9.95;;;7.00;93.40;;;;;;4989732;28;20018;-57
2020/12/21 06:08:50;;;;;;;15.98;10.55;;;7.00;93.40;;;;;;4982312;28;20125;-56
2020/12/21 06:11:17;;;;;;;17.02;9.75;;;7.00;93.50;;;;;;4986722;28;20026;-56
2020/12/21 06:13:49;;;;;;;13.85;11.10;;;7.00;93.50;;;;;;4985481;28;20049;-57
2020/12/21 06:16:16;;;;;;;15.20;10.60;;;6.90;93.60;;;;;;4986683;28;20041;-57
2020/12/21 06:18:42;;;;;;;13.38;10.63;;;7.00;93.60;;;;;;4989911;28;20022;-57
2020/12/21 06:21:08;;;;;;;15.10;11.27;;;6.90;93.50;;;;;;4987085;28;20501;-57
2020/12/21 06:23:37;;;;;;;18.73;10.82;;;7.00;93.60;;;;;;4986226;28;20375;-58
2020/12/21 06:26:12;;;;;;;14.75;10.82;;;7.00;93.60;;;;;;4969051;28;20034;-56
2020/12/21 06:28:38;;;;;;;16.58;11.45;;;6.90;93.60;;;;;;4983572;28;20034;-58
2020/12/21 06:31:14;;;;;;;15.40;10.63;;;6.90;93.60;;;;;;4983434;28;20026;-58
2020/12/21 06:33:40;;;;;;;15.13;10.20;;;7.00;93.60;;;;;;4982618;28;20033;-61
2020/12/21 06:36:05;;;;;;;15.32;10.88;;;6.90;93.60;;;;;;4986037;28;20027;-59
2020/12/21 06:38:42;;;;;;;29.58;11.00;;;6.90;93.60;;;;;;4987207;28;20029;-58
2020/12/21 06:41:18;;;;;;;18.77;11.07;;;7.00;93.60;;;;;;4980862;28;20398;-56
2020/12/21 06:44:13;;;;;;;24.25;11.35;;;7.00;93.50;;;;;;4981343;28;20042;-56
2020/12/21 06:46:38;;;;;;;16.10;10.48;;;7.00;93.60;;;;;;4977524;28;20038;-57
2020/12/21 06:49:09;;;;;;;17.67;10.93;;;7.00;93.60;;;;;;4985458;28;20061;-58
2020/12/21 06:51:36;;;;;;;20.00;11.40;;;6.90;93.60;;;;;;4971396;28;20418;-57
2020/12/21 06:54:03;;;;;;;24.40;11.13;;;7.00;93.50;;;;;;4986350;28;20023;-57
2020/12/21 06:56:28;;;;;;;18.27;10.27;;;7.00;93.50;;;;;;4980099;28;20110;-58
2020/12/21 06:58:55;;;;;;;17.48;10.45;;;7.00;93.50;;;;;;4981269;28;20121;-58
2020/12/21 07:01:24;;;;;;;16.52;10.48;;;7.00;93.40;;;;;;5003270;28;20502;-57
2020/12/21 07:03:50;;;;;;;19.55;11.50;;;7.00;93.50;;;;;;4989059;28;20038;-57
2020/12/21 07:06:16;;;;;;;22.98;10.98;;;7.00;93.40;;;;;;4986319;28;20137;-58
2020/12/21 07:08:43;;;;;;;16.35;11.18;;;7.00;93.40;;;;;;4986833;28;20549;-57
2020/12/21 07:11:17;;;;;;;25.55;11.75;;;7.00;93.40;;;;;;4982563;28;20035;-58
2020/12/21 07:13:43;;;;;;;36.47;11.52;;;7.00;93.40;;;;;;4985448;28;20023;-58
2020/12/21 07:16:09;;;;;;;33.22;12.27;;;7.00;93.40;;;;;;4983037;28;20436;-58
2020/12/21 07:18:34;;;;;;;23.17;11.35;;;7.00;93.40;;;;;;4980110;28;20222;-58
2020/12/21 07:21:00;;;;;;;32.78;11.10;;;7.10;93.50;;;;;;4976332;28;20114;-57
2020/12/21 07:23:26;;;;;;;29.05;11.43;;;7.00;93.50;;;;;;4981772;28;20478;-59
2020/12/21 07:25:52;;;;;;;26.63;11.75;;;7.00;93.50;;;;;;4965857;28;20038;-57
2020/12/21 07:28:24;;;;;;;35.33;12.27;;;7.10;93.50;;;;;;4984079;28;20019;-58
2020/12/21 07:30:50;;;;;;;29.38;11.80;;;7.10;93.50;;;;;;4983145;28;20030;-58
2020/12/21 07:33:15;;;;;;;25.25;10.80;;;7.10;93.50;;;;;;4978157;28;20046;-57
2020/12/21 07:35:41;;;;;;;42.25;13.10;;;7.10;93.50;;;;;;4984311;28;20066;-57
2020/12/21 07:38:13;;;;;;;32.22;11.35;;;7.10;93.60;;;;;;4979819;28;20026;-56
2020/12/21 07:40:39;;;;;;;34.92;11.90;;;7.10;93.70;;;;;;4986515;28;20702;-59
2020/12/21 07:43:05;;;;;;;41.15;12.82;;;7.10;93.70;;;;;;5002971;28;20053;-56
2020/12/21 07:45:31;;;;;;;31.25;13.18;;;7.10;93.70;;;;;;4972468;28;20042;-56
2020/12/21 07:47:56;;;;;;;30.33;12.98;;;7.10;94.00;;;;;;4965151;28;20074;-56
2020/12/21 07:50:22;;;;;;;44.20;13.82;;;7.10;93.80;;;;;;4952593;28;20037;-56
2020/12/21 07:52:47;;;;;;;46.03;13.77;;;7.20;93.80;;;;;;4983662;28;20105;-57
2020/12/21 07:55:14;;;;;;;58.35;14.20;;;7.20;93.90;;;;;;4969537;28;20030;-57
2020/12/21 07:57:40;;;;;;;51.63;14.68;;;7.20;94.10;;;;;;4989088;28;20050;-56
2020/12/21 08:00:05;;;;;;;47.95;14.00;;;7.20;94.10;;;;;;4985982;28;20023;-56
2020/12/21 08:02:31;;;;;;;59.47;14.85;;;7.20;94.10;;;;;;4979798;28;20043;-56
2020/12/21 08:04:58;;;;;;;75.75;15.43;;;7.30;94.00;;;;;;4964617;28;20110;-56
2020/12/21 08:07:28;;;;;;;73.22;15.75;;;7.30;94.10;;;;;;4986323;28;20034;-57
2020/12/21 08:09:53;;;;;;;49.05;13.98;;;7.30;94.00;;;;;;4982709;28;20414;-59
2020/12/21 08:12:19;;;;;;;59.47;16.02;;;7.30;94.10;;;;;;4983817;28;20046;-58
2020/12/21 08:14:44;;;;;;;49.83;15.75;;;7.30;94.10;;;;;;4983817;28;20069;-58
2020/12/21 08:17:17;;;;;;;60.60;15.63;;;7.30;94.10;;;;;;4984661;28;20410;-57
2020/12/21 08:19:51;;;;;;;44.88;14.88;;;7.40;94.30;;;;;;4983204;28;20046;-56
2020/12/21 08:22:36;;;;;;;75.70;16.83;;;7.40;94.30;;;;;;4985218;28;20031;-57
2020/12/21 08:25:12;;;;;;;60.80;17.25;;;7.40;94.40;;;;;;4967894;28;20022;-58
2020/12/21 08:27:39;;;;;;;72.07;17.55;;;7.40;94.50;;;;;;4986113;28;20084;-59
2020/12/21 08:30:09;;;;;;;66.97;15.80;;;7.50;94.60;;;;;;4980762;28;20117;-58
2020/12/21 08:32:34;;;;;;;93.15;17.52;;;7.50;94.60;;;;;;4990439;28;20033;-57
2020/12/21 08:35:00;;;;;;;81.28;16.70;;;7.50;94.70;;;;;;4987388;28;20038;-59
2020/12/21 08:37:26;;;;;;;66.28;17.25;;;7.50;94.70;;;;;;4987742;28;20089;-56
2020/12/21 08:39:51;;;;;;;71.95;19.63;;;7.60;94.80;;;;;;4984708;28;20023;-56
2020/12/21 08:42:17;;;;;;;94.35;19.45;;;7.60;95.00;;;;;;4965542;28;20526;-56
2020/12/21 08:44:42;;;;;;;65.95;16.52;;;7.60;94.90;;;;;;4980043;28;20089;-58
2020/12/21 08:47:08;;;;;;;84.57;19.35;;;7.70;94.80;;;;;;4990761;28;20045;-58
2020/12/21 08:49:34;;;;;;;117.82;20.08;;;7.60;94.90;;;;;;4986212;28;20037;-57
2020/12/21 08:52:00;;;;;;;111.10;21.10;;;7.70;94.90;;;;;;4985867;28;20059;-58
2020/12/21 08:54:26;;;;;;;78.68;18.33;;;7.70;95.00;;;;;;4994589;28;20157;-57
2020/12/21 08:56:57;;;;;;;92.03;19.80;;;7.70;94.90;;;;;;4990742;28;20065;-58
2020/12/21 08:59:22;;;;;;;104.68;18.77;;;7.70;94.90;;;;;;4992850;28;20109;-57
2020/12/21 09:01:48;;;;;;;100.30;18.25;;;7.80;95.00;;;;;;4972737;28;20101;-58
2020/12/21 09:04:13;;;;;;;97.25;19.60;;;7.80;95.10;;;;;;4984322;28;20026;-57
2020/12/21 09:06:39;;;;;;;103.00;20.38;;;7.80;95.20;;;;;;4987120;28;20470;-58
2020/12/21 09:09:05;;;;;;;92.45;19.80;;;7.90;95.30;;;;;;4983492;28;20398;-55
2020/12/21 09:11:31;;;;;;;119.10;22.15;;;7.90;95.40;;;;;;4982009;28;20031;-56
2020/12/21 09:13:56;;;;;;;103.03;19.77;;;7.90;95.40;;;;;;4990034;28;20485;-56
2020/12/21 09:16:24;;;;;;;127.85;22.63;;;8.00;95.40;;;;;;4987881;28;20117;-56
2020/12/21 09:18:50;;;;;;;119.60;21.95;;;8.00;95.40;;;;;;4984766;28;20018;-56
2020/12/21 09:21:25;;;;;;;113.45;22.25;;;8.00;95.40;;;;;;4960991;28;20030;-58
2020/12/21 09:23:55;;;;;;;122.85;22.20;;;8.00;95.50;;;;;;4987736;28;20046;-56
2020/12/21 09:26:21;;;;;;;130.15;24.90;;;8.10;95.60;;;;;;4985528;28;20022;-58
2020/12/21 09:28:47;;;;;;;132.10;23.08;;;8.10;95.60;;;;;;4988317;28;20353;-58
2020/12/21 09:31:13;;;;;;;130.52;22.20;;;8.10;95.70;;;;;;4969720;28;20026;-56
2020/12/21 09:33:39;;;;;;;136.23;23.20;;;8.10;95.70;;;;;;4967618;28;20049;-58
2020/12/21 09:36:10;;;;;;;146.05;25.67;;;8.20;95.80;;;;;;4981297;28;20137;-58
2020/12/21 09:38:36;;;;;;;111.25;22.60;;;8.20;95.80;;;;;;4986192;28;20379;-56
2020/12/21 09:41:02;;;;;;;159.35;25.05;;;8.30;95.80;;;;;;4986864;28;20034;-58
2020/12/21 09:43:28;;;;;;;119.13;23.40;;;8.30;95.80;;;;;;4986518;28;20123;-57
2020/12/21 09:45:53;;;;;;;144.80;25.25;;;8.30;95.80;;;;;;4991871;28;20046;-56
2020/12/21 09:48:19;;;;;;;151.82;25.80;;;8.40;95.80;;;;;;4990186;28;20025;-56
2020/12/21 09:50:44;;;;;;;143.73;24.98;;;8.40;95.80;;;;;;4961490;28;20022;-56
2020/12/21 09:53:10;;;;;;;112.53;24.10;;;8.40;95.70;;;;;;4989330;28;20083;-59
2020/12/21 09:55:36;;;;;;;146.32;26.67;;;8.50;95.70;;;;;;4990150;28;20482;-58
2020/12/21 09:58:02;;;;;;;163.50;26.83;;;8.40;95.60;;;;;;4985963;28;20027;-57
2020/12/21 10:00:28;;;;;;;166.60;26.70;;;8.50;95.80;;;;;;4988311;28;20539;-58
2020/12/21 10:02:54;;;;;;;156.93;25.50;;;8.50;95.80;;;;;;4987218;28;20038;-58
2020/12/21 10:05:19;;;;;;;185.35;27.55;;;8.50;95.70;;;;;;4987064;28;20041;-58
2020/12/21 10:07:45;;;;;;;150.48;27.40;;;8.60;95.70;;;;;;4988969;28;20054;-59
2020/12/21 10:10:10;;;;;;;168.70;28.88;;;8.60;95.80;;;;;;5004764;28;20076;-59
2020/12/21 10:12:36;;;;;;;147.25;28.20;;;8.60;95.70;;;;;;4988403;28;20046;-57
2020/12/21 10:15:01;;;;;;;156.93;28.13;;;8.70;95.90;;;;;;4987400;28;20584;-56
2020/12/21 10:17:27;;;;;;;136.32;25.90;;;8.70;95.80;;;;;;4986261;28;20030;-60
2020/12/21 10:19:52;;;;;;;183.52;27.92;;;8.80;95.80;;;;;;4988881;28;20084;-56
2020/12/21 10:22:18;;;;;;;157.48;27.77;;;8.80;95.70;;;;;;4984443;28;20433;-58
2020/12/21 10:24:43;;;;;;;153.38;28.58;;;8.80;96.00;;;;;;4981433;28;20031;-57
2020/12/21 10:27:09;;;;;;;179.77;28.75;;;8.80;96.10;;;;;;4987947;28;20093;-56
2020/12/21 10:29:34;;;;;;;160.35;29.95;;;8.90;95.80;;;;;;4985530;28;20120;-56
2020/12/21 10:32:00;;;;;;;202.65;30.90;;;8.90;95.80;;;;;;4983255;28;20109;-57
2020/12/21 10:34:26;;;;;;;209.25;31.48;;;9.00;95.80;;;;;;4987476;28;20100;-58
2020/12/21 10:36:52;;;;;;;189.55;29.27;;;9.00;95.80;;;;;;4986450;28;20077;-55
2020/12/21 10:39:18;;;;;;;191.50;30.58;;;8.90;95.80;;;;;;4984899;28;20037;-55
2020/12/21 10:41:43;;;;;;;190.90;31.33;;;9.00;95.80;;;;;;4986868;28;20038;-55
2020/12/21 10:44:09;;;;;;;223.40;34.28;;;9.00;95.80;;;;;;4982650;28;20133;-58
2020/12/21 10:46:34;;;;;;;184.65;31.65;;;9.10;95.80;;;;;;4986352;28;20035;-58
2020/12/21 10:49:00;;;;;;;168.80;31.10;;;9.20;95.90;;;;;;4982578;28;20089;-56
2020/12/21 10:51:29;;;;;;;193.70;32.80;;;9.20;95.80;;;;;;4982503;28;20057;-56
2020/12/21 10:53:54;;;;;;;203.77;32.83;;;9.20;95.80;;;;;;4998606;28;20038;-56
2020/12/21 10:56:20;;;;;;;200.95;32.83;;;9.20;95.70;;;;;;4984891;28;20023;-55
2020/12/21 10:58:46;;;;;;;179.10;32.13;;;9.20;95.70;;;;;;4985147;28;20036;-58
2020/12/21 11:01:11;;;;;;;180.55;30.85;;;9.30;95.70;;;;;;4969487;28;20463;-56
2020/12/21 11:03:37;;;;;;;183.88;31.38;;;9.20;95.60;;;;;;4984890;28;20474;-58
2020/12/21 11:06:03;;;;;;;197.65;32.80;;;9.30;95.60;;;;;;4985119;28;20087;-56
2020/12/21 11:08:28;;;;;;;169.65;30.98;;;9.30;95.70;;;;;;4964869;28;20424;-57
2020/12/21 11:10:54;;;;;;;194.25;31.15;;;9.30;95.70;;;;;;4979648;28;20035;-58
2020/12/21 11:13:19;;;;;;;178.98;33.13;;;9.40;95.70;;;;;;4998592;28;20031;-58
2020/12/21 11:15:45;;;;;;;222.30;37.28;;;9.40;95.70;;;;;;4985189;28;20034;-57
2020/12/21 11:18:10;;;;;;;199.25;33.53;;;9.50;95.70;;;;;;4980517;28;20130;-58
2020/12/21 11:20:36;;;;;;;231.88;36.08;;;9.50;95.70;;;;;;4981840;28;20111;-56
2020/12/21 11:23:01;;;;;;;204.20;34.90;;;9.50;95.80;;;;;;4980986;28;20030;-57
2020/12/21 11:25:27;;;;;;;191.95;34.47;;;9.50;95.80;;;;;;4986636;28;20435;-57
2020/12/21 11:27:52;;;;;;;246.05;36.03;;;9.60;95.90;;;;;;4982937;28;20042;-57
2020/12/21 11:30:18;;;;;;;246.00;36.22;;;9.60;95.90;;;;;;4983702;28;20448;-55
2020/12/21 11:32:43;;;;;;;276.65;39.92;;;9.70;95.90;;;;;;4982657;28;20054;-56
2020/12/21 11:35:09;;;;;;;263.75;38.03;;;9.70;95.90;;;;;;4979987;28;20109;-57
2020/12/21 11:37:35;;;;;;;289.80;40.38;;;9.70;95.90;;;;;;4973285;28;20042;-57
2020/12/21 11:40:01;;;;;;;252.75;37.05;;;9.70;95.90;;;;;;4982846;28;20045;-56
2020/12/21 11:42:26;;;;;;;245.20;38.13;;;9.70;95.90;;;;;;4980074;28;20447;-57
2020/12/21 11:44:52;;;;;;;292.08;40.50;;;9.80;96.00;;;;;;4980746;28;20039;-57
2020/12/21 11:47:17;;;;;;;282.55;42.28;;;9.80;96.00;;;;;;4982552;28;20034;-60
2020/12/21 11:49:42;;;;;;;284.52;37.85;;;9.80;96.00;;;;;;4979557;28;20097;-59
2020/12/21 11:52:08;;;;;;;292.45;42.92;;;9.80;96.00;;;;;;4978034;28;20034;-56
2020/12/21 11:54:36;;;;;;;291.70;41.97;;;9.90;96.00;;;;;;4985799;28;20445;-55
2020/12/21 11:57:02;;;;;;;275.48;41.28;;;9.90;96.10;;;;;;4980451;28;20113;-57
2020/12/21 11:59:28;;;;;;;272.05;41.42;;;10.00;96.20;;;;;;4984781;28;20108;-56
2020/12/21 12:02:02;;;;;;;262.05;42.50;;;10.00;96.20;;;;;;4982292;28;20034;-56
2020/12/21 12:04:28;;;;;;;260.95;43.55;;;10.00;96.20;;;;;;4995456;28;20026;-57
2020/12/21 12:06:54;;;;;;;271.85;39.95;;;10.00;96.20;;;;;;4980919;28;20595;-56
2020/12/21 12:09:20;;;;;;;275.67;42.10;;;10.10;96.20;;;;;;4983185;28;20097;-57
2020/12/21 12:11:46;;;;;;;309.85;42.05;;;10.10;96.20;;;;;;4980660;28;20026;-56
2020/12/21 12:14:12;;;;;;;309.40;43.97;;;10.10;96.20;;;;;;4983881;28;20026;-59
2020/12/21 12:16:37;;;;;;;326.50;45.92;;;10.20;96.30;;;;;;4995795;28;20470;-57
2020/12/21 12:19:03;;;;;;;318.63;44.63;;;10.10;96.20;;;;;;4965133;28;20018;-59
2020/12/21 12:21:28;;;;;;;321.25;48.55;;;10.20;96.30;;;;;;4982911;28;20378;-57
2020/12/21 12:23:54;;;;;;;388.33;49.55;;;10.30;96.30;;;;;;4975776;28;20434;-57
2020/12/21 12:26:19;;;;;;;342.00;43.85;;;10.30;96.40;;;;;;4987556;28;20572;-56
2020/12/21 12:28:45;;;;;;;352.42;48.13;;;10.40;96.30;;;;;;4983510;28;20031;-56